Time;durP1;ratioP1;P1;durP2;ratioP2;P2;SDS_P1;SDS_P2;PMS_P1;PMS_P2;Temp;Humidity;BMP_temperature;BMP_pressure;BME280_temperature;BME280_humidity;BME280_pressure;Samples;Min_cycle;Max_cycle;Signal;HPM_P1;HPM_P2
2021/05/17 00:01:53;;;;;;;10.90;7.40;;;10.30;99.90;;;;;;4969859;28;20569;-64
2021/05/17 00:04:29;;;;;;;9.90;6.13;;;10.20;99.90;;;;;;4970495;28;20493;-65
2021/05/17 00:06:57;;;;;;;8.38;5.93;;;10.10;99.90;;;;;;4968355;28;20132;-64
2021/05/17 00:09:23;;;;;;;9.98;6.13;;;10.10;99.90;;;;;;4968386;28;20153;-65
2021/05/17 00:11:49;;;;;;;7.75;5.65;;;10.20;99.90;;;;;;4968860;28;20590;-65
2021/05/17 00:14:15;;;;;;;8.68;5.93;;;10.10;99.90;;;;;;4968362;28;20034;-64
2021/05/17 00:16:41;;;;;;;7.63;6.25;;;10.20;99.90;;;;;;4970220;28;20039;-65
2021/05/17 00:19:07;;;;;;;11.32;5.55;;;10.20;99.90;;;;;;4969113;28;20043;-65
2021/05/17 00:21:33;;;;;;;6.93;4.95;;;10.30;99.90;;;;;;4967771;28;20333;-64
2021/05/17 00:23:59;;;;;;;9.02;6.00;;;10.30;99.90;;;;;;4970441;28;20623;-64
2021/05/17 00:26:25;;;;;;;8.27;6.07;;;10.40;99.90;;;;;;4969936;28;20035;-64
2021/05/17 00:28:52;;;;;;;8.75;6.22;;;10.30;99.90;;;;;;4968276;28;20923;-65
2021/05/17 00:31:18;;;;;;;9.85;6.47;;;10.40;99.90;;;;;;4969925;28;20034;-64
2021/05/17 00:33:44;;;;;;;8.25;6.07;;;10.30;99.90;;;;;;4968212;28;20549;-64
2021/05/17 00:36:10;;;;;;;8.80;6.43;;;10.20;99.90;;;;;;4968626;28;20035;-65
2021/05/17 00:38:36;;;;;;;8.52;6.65;;;10.20;99.90;;;;;;4967973;28;20038;-64
2021/05/17 00:41:03;;;;;;;6.57;5.82;;;10.30;99.90;;;;;;4970999;28;20604;-64
2021/05/17 00:43:38;;;;;;;8.50;6.22;;;10.30;99.90;;;;;;4966657;28;20506;-65
2021/05/17 00:46:05;;;;;;;19.58;7.28;;;10.30;99.90;;;;;;4970334;28;20101;-64
2021/05/17 00:48:32;;;;;;;10.55;6.60;;;10.30;99.90;;;;;;4968237;28;20030;-65
2021/05/17 00:50:58;;;;;;;8.68;6.28;;;10.20;99.90;;;;;;4967267;28;20351;-65
2021/05/17 00:53:24;;;;;;;8.40;6.60;;;10.20;99.90;;;;;;4969227;28;20035;-65
2021/05/17 00:55:50;;;;;;;9.27;5.97;;;10.20;99.90;;;;;;4965619;28;20490;-65
2021/05/17 00:58:16;;;;;;;8.57;6.78;;;10.20;99.90;;;;;;4969544;28;20101;-64
2021/05/17 01:00:42;;;;;;;10.07;6.63;;;10.20;99.90;;;;;;4969363;28;20488;-65
2021/05/17 01:03:09;;;;;;;7.95;5.90;;;10.20;99.90;;;;;;4969230;28;20038;-64
2021/05/17 01:05:39;;;;;;;8.30;6.10;;;10.20;99.90;;;;;;4966359;28;20030;-65
2021/05/17 01:08:08;;;;;;;10.60;6.80;;;10.20;99.90;;;;;;4968632;28;20035;-64
2021/05/17 01:10:41;;;;;;;7.82;5.72;;;10.20;99.90;;;;;;4966104;28;20055;-65
2021/05/17 01:13:07;;;;;;;10.20;7.15;;;10.20;99.90;;;;;;4968942;28;20491;-64
2021/05/17 01:15:33;;;;;;;7.88;6.40;;;10.20;99.90;;;;;;4965498;28;20034;-64
2021/05/17 01:18:00;;;;;;;8.45;6.53;;;10.20;99.90;;;;;;4968272;28;20053;-65
2021/05/17 01:20:30;;;;;;;12.48;7.15;;;10.30;99.90;;;;;;4966499;28;20367;-65
2021/05/17 01:25:53;;;;;;;9.57;7.20;;;10.30;99.90;;;;;;4967120;28;20034;-65
2021/05/17 01:28:25;;;;;;;8.80;6.43;;;10.20;99.90;;;;;;4968762;28;20346;-64
2021/05/17 01:30:53;;;;;;;10.45;6.72;;;10.20;99.90;;;;;;4968718;28;20041;-64
2021/05/17 01:33:19;;;;;;;9.90;6.70;;;10.30;99.90;;;;;;4967288;28;20470;-64
2021/05/17 01:35:49;;;;;;;9.32;6.50;;;10.30;99.90;;;;;;4967145;28;20038;-64
2021/05/17 01:38:16;;;;;;;;;;;10.30;99.90;;;;;;4968313;28;20117;-64
2021/05/17 01:40:48;;;;;;;8.50;6.20;;;10.20;99.90;;;;;;4965016;28;19914;-65
2021/05/17 01:43:16;;;;;;;12.90;7.97;;;10.30;99.90;;;;;;4966616;28;20037;-64
2021/05/17 01:45:43;;;;;;;10.10;6.90;;;10.30;99.90;;;;;;4968485;28;20023;-65
2021/05/17 01:48:10;;;;;;;9.18;7.00;;;10.20;99.90;;;;;;4966045;28;20027;-64
2021/05/17 01:50:37;;;;;;;9.88;6.75;;;10.20;99.90;;;;;;4967212;28;20461;-64
2021/05/17 01:53:04;;;;;;;8.10;6.28;;;10.30;99.90;;;;;;4968113;28;20085;-64
2021/05/17 01:55:31;;;;;;;9.30;7.30;;;10.30;99.90;;;;;;4967503;28;20108;-64
2021/05/17 01:58:11;;;;;;;9.65;6.68;;;10.30;99.90;;;;;;4964824;28;20635;-65
2021/05/17 02:00:40;;;;;;;8.93;6.25;;;10.30;99.90;;;;;;4968902;28;20069;-64
2021/05/17 02:03:07;;;;;;;8.80;6.80;;;10.20;99.90;;;;;;4967146;28;20556;-65
2021/05/17 02:05:33;;;;;;;8.70;7.05;;;10.20;99.90;;;;;;4964606;28;20385;-65
2021/05/17 02:08:00;;;;;;;10.15;6.72;;;10.20;99.90;;;;;;4964939;28;20041;-64
2021/05/17 02:10:26;;;;;;;8.15;6.32;;;10.20;99.90;;;;;;4966285;28;20359;-65
2021/05/17 02:12:52;;;;;;;9.63;7.70;;;10.20;99.90;;;;;;4967615;28;20045;-65
2021/05/17 02:15:19;;;;;;;9.65;7.32;;;10.20;99.90;;;;;;4965541;28;20034;-65
2021/05/17 02:17:59;;;;;;;10.52;7.35;;;10.10;99.90;;;;;;4969009;28;20034;-65
2021/05/17 02:20:29;;;;;;;8.98;6.88;;;10.10;99.90;;;;;;4966062;28;20050;-65
2021/05/17 02:22:55;;;;;;;8.77;6.15;;;10.20;99.90;;;;;;4968760;28;20034;-65
2021/05/17 02:25:22;;;;;;;11.77;7.35;;;10.20;99.90;;;;;;4966949;28;20069;-65
2021/05/17 02:27:48;;;;;;;9.10;6.75;;;10.20;99.90;;;;;;4965901;28;20035;-64
2021/05/17 02:30:15;;;;;;;9.68;7.00;;;10.20;99.90;;;;;;4966109;28;20560;-64
2021/05/17 02:32:41;;;;;;;9.18;7.22;;;10.20;99.90;;;;;;4968077;28;20084;-64
2021/05/17 02:35:08;;;;;;;11.20;8.00;;;10.20;99.90;;;;;;4966277;28;20337;-64
2021/05/17 02:37:34;;;;;;;10.63;7.82;;;10.20;99.90;;;;;;4966860;28;20033;-63
2021/05/17 02:40:02;;;;;;;9.95;7.80;;;10.20;99.90;;;;;;4967168;28;20030;-64
2021/05/17 02:42:29;;;;;;;11.00;7.53;;;10.30;99.90;;;;;;4966945;28;20026;-64
2021/05/17 02:44:56;;;;;;;11.30;7.28;;;10.30;99.90;;;;;;4965642;28;20035;-64
2021/05/17 02:47:23;;;;;;;12.63;8.18;;;10.30;99.90;;;;;;4966611;28;20034;-64
2021/05/17 02:49:51;;;;;;;11.52;8.95;;;10.30;99.90;;;;;;4965770;28;20747;-65
2021/05/17 02:52:17;;;;;;;12.43;9.57;;;10.20;99.90;;;;;;4967139;28;20408;-65
2021/05/17 02:54:46;;;;;;;12.20;9.07;;;10.10;99.90;;;;;;4966291;28;20034;-65
2021/05/17 02:57:13;;;;;;;12.95;9.32;;;10.20;99.90;;;;;;4966731;28;20031;-64
2021/05/17 03:00:07;;;;;;;13.52;9.45;;;10.20;99.90;;;;;;4964595;28;20329;-64
2021/05/17 03:02:54;;;;;;;12.55;9.00;;;10.20;99.90;;;;;;4965134;28;20478;-64
2021/05/17 03:05:20;;;;;;;10.05;7.30;;;10.20;99.90;;;;;;4964898;28;20349;-64
2021/05/17 03:08:16;;;;;;;12.07;8.60;;;10.20;99.90;;;;;;4967492;28;20038;-64
2021/05/17 03:10:45;;;;;;;15.27;8.88;;;10.20;99.90;;;;;;4966858;28;20049;-64
2021/05/17 03:13:19;;;;;;;13.68;9.25;;;10.10;99.90;;;;;;4966761;28;20030;-65
2021/05/17 03:15:46;;;;;;;11.90;8.90;;;10.20;99.90;;;;;;4966213;28;20100;-64
2021/05/17 03:18:13;;;;;;;12.30;9.52;;;10.30;99.90;;;;;;4964509;28;20520;-64
2021/05/17 03:20:39;;;;;;;10.55;7.57;;;10.30;99.90;;;;;;4966741;28;20042;-63
2021/05/17 03:23:11;;;;;;;13.55;8.68;;;10.30;99.90;;;;;;4966685;28;20043;-64
2021/05/17 03:25:39;;;;;;;12.10;9.35;;;10.30;99.90;;;;;;4966008;28;20018;-65
2021/05/17 03:28:05;;;;;;;13.65;9.80;;;10.30;99.90;;;;;;4966961;28;20453;-64
2021/05/17 03:30:32;;;;;;;13.38;9.90;;;10.30;99.90;;;;;;4965426;28;20027;-65
2021/05/17 03:32:57;;;;;;;11.48;8.77;;;10.40;99.90;;;;;;4965853;28;20034;-64
2021/05/17 03:35:23;;;;;;;13.80;10.20;;;10.40;99.90;;;;;;4966442;28;20033;-64
2021/05/17 03:37:49;;;;;;;14.48;10.30;;;10.40;99.90;;;;;;4960889;28;20141;-64
2021/05/17 03:40:16;;;;;;;15.05;10.00;;;10.40;99.90;;;;;;4965649;28;20035;-65
2021/05/17 03:42:42;;;;;;;15.15;9.55;;;10.40;99.90;;;;;;4965567;28;20074;-64
2021/05/17 03:45:10;;;;;;;14.48;10.35;;;10.40;99.90;;;;;;4965681;28;20043;-64
2021/05/17 03:47:36;;;;;;;13.80;10.45;;;10.30;99.90;;;;;;4966907;28;20027;-64
2021/05/17 03:50:04;;;;;;;17.42;11.48;;;10.30;99.90;;;;;;4962780;28;20113;-64
2021/05/17 03:52:30;;;;;;;19.40;11.35;;;10.30;99.90;;;;;;4962525;28;20049;-64
2021/05/17 03:54:56;;;;;;;14.70;11.15;;;10.30;99.90;;;;;;4963045;28;20526;-63
2021/05/17 03:57:21;;;;;;;14.00;10.77;;;10.40;99.90;;;;;;4964411;28;20396;-64
2021/05/17 03:59:47;;;;;;;16.63;11.85;;;10.40;99.90;;;;;;4964365;28;20039;-64
2021/05/17 04:02:20;;;;;;;13.23;10.40;;;10.40;99.90;;;;;;4962800;28;20100;-66
2021/05/17 04:07:50;;;;;;;13.70;11.02;;;10.50;99.90;;;;;;4962027;28;20436;-69
2021/05/17 04:15:45;;;;;;;14.82;11.57;;;10.30;99.90;;;;;;4970436;28;20023;-70
2021/05/17 04:18:11;;;;;;;15.50;11.77;;;10.30;99.90;;;;;;4967997;28;20030;-70
2021/05/17 04:20:38;;;;;;;16.88;12.25;;;10.30;99.90;;;;;;4966421;28;20081;-69
2021/05/17 04:23:04;;;;;;;16.30;12.05;;;10.30;99.90;;;;;;4968948;28;20042;-69
2021/05/17 04:25:30;;;;;;;20.83;12.40;;;10.40;99.90;;;;;;4964588;28;20348;-69
2021/05/17 04:27:56;;;;;;;16.30;12.50;;;10.40;99.90;;;;;;4969095;28;20026;-69
2021/05/17 04:30:23;;;;;;;16.25;12.07;;;10.30;99.90;;;;;;4968876;28;20056;-69
2021/05/17 04:32:48;;;;;;;16.00;11.43;;;10.20;99.90;;;;;;4968022;28;20023;-69
2021/05/17 04:35:14;;;;;;;14.23;11.15;;;10.30;99.90;;;;;;4968458;28;20357;-69
2021/05/17 04:37:40;;;;;;;15.07;11.27;;;10.40;99.90;;;;;;4969401;28;20033;-69
2021/05/17 04:40:08;;;;;;;14.82;11.20;;;10.30;99.90;;;;;;4965681;28;20089;-73
2021/05/17 04:42:34;;;;;;;14.75;10.95;;;10.30;99.90;;;;;;4967481;28;20027;-69
2021/05/17 04:45:01;;;;;;;16.00;11.35;;;10.30;99.90;;;;;;4967859;28;20035;-69
2021/05/17 04:47:27;;;;;;;14.15;11.20;;;10.40;99.90;;;;;;4969889;28;20427;-69
2021/05/17 04:49:52;;;;;;;14.43;11.38;;;10.30;99.90;;;;;;4949934;28;20035;-69
2021/05/17 04:52:18;;;;;;;18.02;12.32;;;10.20;99.90;;;;;;4966392;28;20196;-69
2021/05/17 04:54:45;;;;;;;21.45;14.02;;;10.20;99.90;;;;;;4963726;28;20034;-70
2021/05/17 04:57:11;;;;;;;9.65;7.70;;;10.10;99.90;;;;;;4966126;28;20804;-69
2021/05/17 04:59:37;;;;;;;9.15;7.30;;;10.10;99.90;;;;;;4968109;28;20061;-69
2021/05/17 05:02:05;;;;;;;10.35;7.40;;;10.00;99.90;;;;;;4966489;28;20034;-70
2021/05/17 05:04:31;;;;;;;5.78;4.05;;;10.00;99.90;;;;;;4967265;28;20038;-69
2021/05/17 05:06:57;;;;;;;2.97;2.40;;;10.00;99.90;;;;;;4967362;28;20569;-69
2021/05/17 05:09:23;;;;;;;2.90;2.58;;;9.90;99.90;;;;;;4965839;28;20240;-69
2021/05/17 05:11:49;;;;;;;4.13;2.88;;;9.90;99.90;;;;;;4968589;28;20026;-68
2021/05/17 05:14:15;;;;;;;4.68;2.97;;;9.90;99.90;;;;;;4969377;28;20041;-69
2021/05/17 05:16:42;;;;;;;3.90;2.80;;;9.80;99.90;;;;;;4969226;28;20085;-67
2021/05/17 05:19:08;;;;;;;3.95;2.80;;;9.80;99.90;;;;;;4970042;28;20102;-69
2021/05/17 05:21:34;;;;;;;3.90;2.33;;;9.70;99.90;;;;;;4969053;28;20161;-68
2021/05/17 05:24:01;;;;;;;5.85;3.05;;;9.70;99.90;;;;;;4970341;28;20065;-68
2021/05/17 05:34:15;;;;;;;4.55;2.30;;;9.60;99.90;;;;;;4969655;28;20041;-68
2021/05/17 05:36:41;;;;;;;3.40;1.90;;;9.60;99.90;;;;;;4969739;28;20157;-69
2021/05/17 05:39:07;;;;;;;2.92;2.50;;;9.50;99.90;;;;;;4969254;28;20101;-69
2021/05/17 05:41:33;;;;;;;5.50;2.22;;;9.50;99.90;;;;;;4968875;28;20420;-69
2021/05/17 05:43:59;;;;;;;5.53;2.85;;;9.50;99.90;;;;;;4968655;28;20292;-69
2021/05/17 05:46:25;;;;;;;2.60;2.10;;;9.50;99.90;;;;;;4968085;28;20101;-69
2021/05/17 05:48:50;;;;;;;4.60;2.65;;;9.60;99.90;;;;;;4969599;28;20045;-69
2021/05/17 05:51:19;;;;;;;3.97;2.67;;;9.60;99.90;;;;;;4970345;28;20474;-69
2021/05/17 05:53:45;;;;;;;3.15;2.22;;;9.60;99.90;;;;;;4967971;28;20027;-69
2021/05/17 05:56:11;;;;;;;4.22;2.58;;;9.60;99.90;;;;;;4968971;28;20027;-69
2021/05/17 05:58:37;;;;;;;2.95;2.40;;;9.60;99.90;;;;;;4968914;28;20153;-69
2021/05/17 06:01:05;;;;;;;6.78;3.00;;;9.60;99.90;;;;;;4969400;28;20357;-69
2021/05/17 06:03:31;;;;;;;4.80;3.00;;;9.60;99.90;;;;;;4968858;28;20513;-68
2021/05/17 06:05:57;;;;;;;4.75;3.20;;;9.60;99.90;;;;;;4969647;28;20030;-68
2021/05/17 06:08:23;;;;;;;5.40;3.08;;;9.60;99.90;;;;;;4968229;28;20129;-68
2021/05/17 06:10:49;;;;;;;4.78;3.10;;;9.60;99.90;;;;;;4968929;28;20518;-68
2021/05/17 06:13:15;;;;;;;5.25;3.25;;;9.70;99.90;;;;;;4968378;28;20039;-67
2021/05/17 06:15:44;;;;;;;8.88;3.95;;;9.70;99.90;;;;;;4969624;28;20030;-68
2021/05/17 06:18:11;;;;;;;7.82;4.60;;;9.80;99.90;;;;;;4969355;28;20042;-70
2021/05/17 06:20:39;;;;;;;7.18;5.18;;;9.70;99.90;;;;;;4970126;28;20204;-69
2021/05/17 06:23:05;;;;;;;11.82;6.72;;;9.80;99.90;;;;;;4968272;28;20369;-68
2021/05/17 06:25:31;;;;;;;19.08;7.45;;;9.90;99.90;;;;;;4968216;28;20030;-69
2021/05/17 06:27:57;;;;;;;14.00;7.55;;;9.90;99.90;;;;;;4967688;28;20320;-68
2021/05/17 06:30:24;;;;;;;14.73;9.43;;;10.00;99.90;;;;;;4968797;28;20040;-69
2021/05/17 06:32:51;;;;;;;11.65;7.53;;;10.10;99.90;;;;;;4968208;28;20122;-69
2021/05/17 06:35:23;;;;;;;15.57;8.98;;;10.10;99.90;;;;;;4968222;28;20494;-68
2021/05/17 06:37:49;;;;;;;14.88;9.85;;;10.10;99.90;;;;;;4968725;28;20585;-69
2021/05/17 06:40:15;;;;;;;15.13;9.65;;;10.20;99.90;;;;;;4967750;28;20056;-69
2021/05/17 06:42:42;;;;;;;16.38;11.63;;;10.20;99.90;;;;;;4967485;28;20537;-69
2021/05/17 06:45:09;;;;;;;16.65;10.68;;;10.20;99.90;;;;;;5000517;28;20301;-69
2021/05/17 06:47:36;;;;;;;17.88;11.90;;;10.20;99.90;;;;;;4969425;28;20034;-69
2021/05/17 06:50:07;;;;;;;17.02;11.95;;;10.30;99.90;;;;;;4968596;28;20039;-69
2021/05/17 06:52:34;;;;;;;14.77;8.63;;;10.30;99.90;;;;;;4966155;28;20546;-68
2021/05/17 06:55:03;;;;;;;12.82;9.05;;;10.40;99.90;;;;;;4968138;28;20498;-69
2021/05/17 07:00:07;;;;;;;12.45;7.63;;;10.50;99.90;;;;;;4968059;28;20046;-69
2021/05/17 07:02:35;;;;;;;10.73;7.10;;;10.50;99.90;;;;;;4967832;28;20042;-69
2021/05/17 07:05:02;;;;;;;9.73;6.03;;;10.60;99.90;;;;;;4967223;28;20031;-69
2021/05/17 07:12:51;;;;;;;11.90;7.38;;;10.50;99.90;;;;;;4966069;28;20532;-69
2021/05/17 07:15:17;;;;;;;10.88;7.82;;;10.60;99.90;;;;;;4968018;28;20038;-69
2021/05/17 07:17:44;;;;;;;14.13;9.30;;;10.60;99.90;;;;;;4966862;28;20026;-69
2021/05/17 07:20:13;;;;;;;12.85;9.15;;;10.60;99.90;;;;;;4968010;28;20050;-69
2021/05/17 07:25:23;;;;;;;17.17;10.20;;;10.60;99.90;;;;;;4967470;28;20039;-70
2021/05/17 07:27:49;;;;;;;17.55;11.80;;;10.60;99.90;;;;;;4968722;28;20589;-70
2021/05/17 07:30:17;;;;;;;20.65;13.60;;;10.60;99.90;;;;;;4968088;28;20333;-70
2021/05/17 07:32:42;;;;;;;21.90;14.55;;;10.60;99.90;;;;;;4965978;28;20035;-70
2021/05/17 07:35:09;;;;;;;20.95;13.10;;;10.70;99.90;;;;;;4966733;28;20475;-70
2021/05/17 07:37:34;;;;;;;20.23;11.90;;;10.80;99.90;;;;;;4968099;28;20034;-69
2021/05/17 07:40:00;;;;;;;15.60;10.20;;;10.70;99.90;;;;;;4967944;28;20464;-69
2021/05/17 07:42:27;;;;;;;14.68;9.35;;;10.80;99.90;;;;;;4967107;28;20059;-69
2021/05/17 07:44:53;;;;;;;14.40;8.82;;;10.70;99.90;;;;;;4968055;28;20045;-69
2021/05/17 07:47:19;;;;;;;13.90;9.20;;;10.70;99.90;;;;;;4970275;28;20471;-69
2021/05/17 07:49:53;;;;;;;14.73;8.70;;;10.70;99.90;;;;;;4970854;28;20180;-70
2021/05/17 07:52:19;;;;;;;16.33;10.77;;;10.70;99.90;;;;;;4971494;28;20217;-70
2021/05/17 07:54:45;;;;;;;16.67;11.13;;;10.70;99.90;;;;;;4971025;28;20042;-69
2021/05/17 07:57:12;;;;;;;17.83;11.70;;;10.70;99.90;;;;;;4970190;28;20038;-69
2021/05/17 07:59:38;;;;;;;19.50;11.63;;;10.80;99.90;;;;;;5002041;28;20446;-69
2021/05/17 08:02:04;;;;;;;17.85;12.25;;;10.90;99.90;;;;;;4969876;28;20019;-69
2021/05/17 08:04:30;;;;;;;22.20;14.35;;;11.00;99.90;;;;;;4970539;28;20035;-69
2021/05/17 08:06:56;;;;;;;23.35;14.52;;;11.00;99.90;;;;;;4971608;28;20037;-68
2021/05/17 08:09:22;;;;;;;25.52;14.95;;;11.10;99.90;;;;;;4970378;28;20379;-69
2021/05/17 08:11:50;;;;;;;23.38;14.50;;;11.20;99.90;;;;;;4972150;28;20034;-69
2021/05/17 08:14:17;;;;;;;19.70;13.65;;;11.30;99.90;;;;;;4970951;28;20034;-70
2021/05/17 08:16:43;;;;;;;22.63;14.48;;;11.50;99.90;;;;;;4969199;28;20034;-70
2021/05/17 08:19:09;;;;;;;22.85;14.43;;;11.60;99.90;;;;;;4971951;28;20042;-71
2021/05/17 08:21:35;;;;;;;28.60;19.10;;;11.80;99.90;;;;;;4969399;28;20608;-71
2021/05/17 08:24:02;;;;;;;29.00;19.05;;;11.90;99.90;;;;;;4970376;28;20074;-71
2021/05/17 08:26:28;;;;;;;28.83;18.40;;;11.90;99.90;;;;;;4971587;28;20050;-71
2021/05/17 08:28:54;;;;;;;32.13;20.48;;;12.00;99.90;;;;;;4970938;28;20038;-72
2021/05/17 08:31:22;;;;;;;30.38;20.13;;;12.00;99.90;;;;;;4971833;28;20034;-72
2021/05/17 08:33:49;;;;;;;30.17;20.55;;;12.20;99.90;;;;;;4970235;28;20105;-71
2021/05/17 08:36:15;;;;;;;29.27;19.48;;;12.20;99.90;;;;;;4969543;28;20437;-70
2021/05/17 08:38:41;;;;;;;32.88;20.08;;;12.20;99.90;;;;;;4969851;28;20049;-70
2021/05/17 08:41:10;;;;;;;31.33;19.42;;;12.20;99.90;;;;;;4970985;28;20034;-70
2021/05/17 08:43:38;;;;;;;31.15;19.83;;;12.20;99.90;;;;;;4970483;28;20030;-71
2021/05/17 08:46:04;;;;;;;30.83;20.38;;;12.10;99.90;;;;;;4971178;28;20105;-71
2021/05/17 08:48:30;;;;;;;30.38;19.55;;;12.10;99.90;;;;;;4970831;28;20034;-71
2021/05/17 08:50:56;;;;;;;34.72;21.48;;;12.10;99.90;;;;;;4969116;28;20360;-71
2021/05/17 08:53:22;;;;;;;28.63;20.58;;;12.10;99.90;;;;;;4970585;28;20474;-71
2021/05/17 08:55:48;;;;;;;32.88;21.38;;;12.00;99.90;;;;;;4952158;28;20026;-71
2021/05/17 08:58:17;;;;;;;36.83;21.42;;;11.90;99.90;;;;;;4970649;28;20037;-71
2021/05/17 09:00:43;;;;;;;32.80;21.50;;;11.90;99.90;;;;;;4969102;28;20092;-71
2021/05/17 09:03:09;;;;;;;37.38;23.30;;;11.90;99.90;;;;;;4969518;28;20337;-70
2021/05/17 09:05:37;;;;;;;34.53;23.77;;;12.00;99.90;;;;;;4970188;28;20034;-70
2021/05/17 09:08:05;;;;;;;37.42;24.20;;;12.00;99.90;;;;;;4970349;28;20058;-71
2021/05/17 09:10:36;;;;;;;38.45;22.85;;;12.00;99.90;;;;;;4969184;28;20037;-70
2021/05/17 09:13:08;;;;;;;33.45;22.63;;;12.10;99.90;;;;;;4970323;28;20034;-70
2021/05/17 09:15:43;;;;;;;37.92;24.30;;;12.10;99.90;;;;;;4970053;28;20031;-70
2021/05/17 09:18:17;;;;;;;33.40;21.33;;;12.00;99.90;;;;;;4970137;28;20672;-70
2021/05/17 09:20:51;;;;;;;36.03;22.17;;;12.00;99.90;;;;;;4983308;28;20038;-71
2021/05/17 09:23:18;;;;;;;36.78;23.23;;;12.00;99.90;;;;;;4969687;28;20055;-70
2021/05/17 09:26:08;;;;;;;35.47;22.40;;;11.90;99.90;;;;;;4970487;28;20042;-71
2021/05/17 09:28:36;;;;;;;33.17;21.33;;;12.00;99.90;;;;;;4969598;28;20054;-71
2021/05/17 09:31:06;;;;;;;36.13;22.95;;;12.10;99.90;;;;;;4967749;28;20038;-71
2021/05/17 09:33:55;;;;;;;35.92;22.25;;;12.10;99.90;;;;;;4970066;28;20204;-71
2021/05/17 09:36:30;;;;;;;36.60;22.50;;;12.20;99.90;;;;;;4969745;28;20038;-71
2021/05/17 09:39:04;;;;;;;37.25;22.85;;;12.20;99.90;;;;;;4969960;28;20550;-70
2021/05/17 09:41:48;;;;;;;33.55;22.90;;;12.20;99.90;;;;;;4969973;28;20062;-71
2021/05/17 09:44:24;;;;;;;31.70;22.00;;;12.30;99.90;;;;;;4969337;28;20056;-70
2021/05/17 09:47:14;;;;;;;33.80;20.85;;;12.40;99.90;;;;;;4968372;28;20030;-71
2021/05/17 09:49:45;;;;;;;27.05;18.65;;;12.50;99.90;;;;;;4969020;28;20780;-70
2021/05/17 09:52:19;;;;;;;28.60;19.33;;;12.70;99.90;;;;;;4969867;28;20031;-70
2021/05/17 09:54:57;;;;;;;29.67;19.42;;;12.90;99.90;;;;;;4967622;28;20095;-70
2021/05/17 09:57:24;;;;;;;30.80;19.90;;;13.10;99.90;;;;;;4975701;28;20511;-70
2021/05/17 09:59:52;;;;;;;27.98;19.17;;;13.40;99.90;;;;;;4968759;28;20520;-70
2021/05/17 10:02:28;;;;;;;30.35;20.00;;;13.40;99.90;;;;;;4967141;28;20478;-70
2021/05/17 10:04:56;;;;;;;27.85;18.45;;;13.40;99.90;;;;;;4969075;28;20096;-70
2021/05/17 10:07:22;;;;;;;29.38;18.25;;;13.30;99.90;;;;;;4966486;28;20027;-70
2021/05/17 10:09:48;;;;;;;28.85;18.92;;;13.20;99.90;;;;;;4968226;28;20057;-70
2021/05/17 10:12:15;;;;;;;29.98;19.70;;;13.20;99.90;;;;;;4969099;28;20426;-70
2021/05/17 10:14:41;;;;;;;30.17;19.52;;;13.20;99.90;;;;;;4969076;28;20030;-70
2021/05/17 10:17:07;;;;;;;30.13;19.70;;;13.00;99.90;;;;;;4968981;28;20031;-70
2021/05/17 10:19:33;;;;;;;29.33;20.25;;;13.00;99.90;;;;;;4965874;28;20049;-70
2021/05/17 10:21:59;;;;;;;30.38;20.67;;;12.90;99.90;;;;;;4966891;28;20757;-70
2021/05/17 10:24:25;;;;;;;32.83;20.33;;;12.90;99.90;;;;;;4968202;28;20055;-68
2021/05/17 10:26:51;;;;;;;31.27;20.77;;;12.90;99.90;;;;;;4968562;28;20450;-70
2021/05/17 10:29:17;;;;;;;30.67;20.60;;;12.90;99.90;;;;;;4967318;28;20034;-70
2021/05/17 10:31:53;;;;;;;33.15;22.13;;;13.00;99.90;;;;;;4967426;28;20022;-70
2021/05/17 10:34:18;;;;;;;30.60;22.02;;;13.00;99.90;;;;;;4967769;28;20149;-70
2021/05/17 10:36:58;;;;;;;33.00;20.52;;;12.90;99.90;;;;;;4967294;28;20505;-70
2021/05/17 10:39:29;;;;;;;29.60;21.05;;;12.80;99.90;;;;;;4967589;28;20038;-70
2021/05/17 10:48:08;;;;;;;29.20;18.95;;;13.50;99.90;;;;;;4975680;28;20621;-70
2021/05/17 10:50:34;;;;;;;34.45;20.75;;;13.70;99.90;;;;;;4967513;28;20033;-70
2021/05/17 10:53:00;;;;;;;29.25;20.13;;;13.80;99.90;;;;;;4968043;28;20030;-70
2021/05/17 10:55:29;;;;;;;30.42;19.77;;;13.60;99.90;;;;;;4967857;28;20030;-70
2021/05/17 10:58:08;;;;;;;31.25;18.38;;;13.40;99.90;;;;;;4967874;28;20033;-70
2021/05/17 11:00:38;;;;;;;32.97;18.73;;;13.30;99.90;;;;;;4966705;28;20074;-71
2021/05/17 11:03:08;;;;;;;28.88;18.83;;;13.30;99.90;;;;;;4966935;28;20486;-70
2021/05/17 11:05:35;;;;;;;30.55;20.20;;;13.50;99.90;;;;;;4967032;28;20074;-68
2021/05/17 11:08:06;;;;;;;29.73;19.00;;;13.70;99.90;;;;;;4966403;28;20462;-68
2021/05/17 11:10:51;;;;;;;28.98;18.95;;;13.80;99.90;;;;;;4976062;28;20025;-68
2021/05/17 11:13:29;;;;;;;25.75;15.90;;;13.80;99.90;;;;;;4966402;28;20672;-69
2021/05/17 11:16:00;;;;;;;26.83;17.95;;;14.00;99.90;;;;;;4967328;28;20046;-69
2021/05/17 11:18:35;;;;;;;21.55;15.32;;;13.90;99.90;;;;;;4968384;28;20038;-68
2021/05/17 11:21:24;;;;;;;26.90;17.38;;;13.80;99.90;;;;;;4969317;28;20724;-69
2021/05/17 11:23:53;;;;;;;28.40;19.60;;;13.70;99.90;;;;;;4968692;28;20225;-69
2021/05/17 11:26:22;;;;;;;27.98;18.08;;;13.70;99.90;;;;;;4972024;28;20444;-71
2021/05/17 11:28:49;;;;;;;24.17;16.05;;;14.10;99.90;;;;;;4970327;28;20049;-68
2021/05/17 11:31:17;;;;;;;21.35;15.07;;;14.10;99.90;;;;;;4970864;28;20041;-69
2021/05/17 11:33:52;;;;;;;22.15;14.95;;;14.20;99.90;;;;;;4971999;28;20485;-69
2021/05/17 11:36:18;;;;;;;19.40;13.57;;;14.20;99.90;;;;;;4970988;28;20067;-69
2021/05/17 11:39:14;;;;;;;21.00;13.75;;;14.10;99.90;;;;;;4970853;28;20517;-69
2021/05/17 11:41:46;;;;;;;20.42;14.52;;;14.20;99.90;;;;;;4972021;28;20038;-70
2021/05/17 11:44:24;;;;;;;22.23;14.98;;;14.20;99.90;;;;;;4970928;28;20072;-70
2021/05/17 11:46:54;;;;;;;19.13;14.13;;;14.10;99.90;;;;;;4971267;28;20105;-70
2021/05/17 11:49:22;;;;;;;18.70;12.55;;;14.30;99.90;;;;;;4972263;28;20035;-70
2021/05/17 11:51:51;;;;;;;19.88;12.88;;;14.40;99.90;;;;;;4968747;28;20489;-70
2021/05/17 11:54:18;;;;;;;19.20;12.73;;;14.40;99.90;;;;;;4970656;28;20084;-69
2021/05/17 11:56:49;;;;;;;19.13;13.65;;;14.40;99.90;;;;;;4970829;28;20038;-70
2021/05/17 11:59:23;;;;;;;20.73;13.57;;;14.50;99.90;;;;;;4969326;28;20422;-70
2021/05/17 12:02:11;;;;;;;21.80;14.25;;;14.30;99.90;;;;;;4968083;28;20129;-70
2021/05/17 12:04:39;;;;;;;20.17;13.95;;;14.20;99.90;;;;;;4970212;28;20042;-70
2021/05/17 12:07:14;;;;;;;20.30;13.80;;;14.10;99.90;;;;;;4970946;28;20022;-70
2021/05/17 12:09:53;;;;;;;22.92;15.40;;;13.90;99.90;;;;;;4971156;28;20045;-70
2021/05/17 12:12:23;;;;;;;26.02;15.75;;;13.70;99.90;;;;;;4971440;28;20027;-69
2021/05/17 12:14:51;;;;;;;23.58;15.20;;;14.00;99.90;;;;;;4969497;28;20105;-70
2021/05/17 12:17:19;;;;;;;25.88;14.70;;;14.20;99.90;;;;;;4970211;28;20037;-69
2021/05/17 12:19:51;;;;;;;22.23;14.45;;;14.20;99.90;;;;;;4971036;28;20022;-70
2021/05/17 12:22:22;;;;;;;27.65;15.93;;;14.20;99.90;;;;;;4970477;28;20549;-70
2021/05/17 12:24:48;;;;;;;26.35;16.98;;;14.20;99.90;;;;;;4985406;28;20050;-69
2021/05/17 12:27:16;;;;;;;23.33;14.40;;;14.10;99.90;;;;;;4970469;28;20043;-69
2021/05/17 12:30:02;;;;;;;24.65;14.85;;;14.00;99.90;;;;;;4967968;28;20018;-69
2021/05/17 12:32:36;;;;;;;21.58;14.45;;;14.00;99.90;;;;;;4969449;28;20917;-69
2021/05/17 12:35:20;;;;;;;20.38;12.38;;;13.90;99.90;;;;;;4970872;28;20049;-69
2021/05/17 12:37:50;;;;;;;19.85;12.75;;;14.10;99.90;;;;;;4969884;28;20101;-70
2021/05/17 12:40:27;;;;;;;;;;;14.10;99.90;;;;;;4971139;28;20039;-70
2021/05/17 12:43:03;;;;;;;14.15;9.15;;;14.30;99.90;;;;;;4969631;28;19910;-70
2021/05/17 12:45:30;;;;;;;13.32;9.10;;;14.50;99.90;;;;;;4970187;28;20031;-70
2021/05/17 12:47:56;;;;;;;17.15;10.05;;;14.80;99.90;;;;;;4969525;28;20031;-69
2021/05/17 12:50:32;;;;;;;14.15;8.70;;;14.90;99.90;;;;;;4970991;28;20041;-70
2021/05/17 12:53:10;;;;;;;12.35;8.07;;;14.90;99.90;;;;;;4969997;28;20451;-69
2021/05/17 12:55:44;;;;;;;14.88;8.93;;;15.10;99.90;;;;;;4970045;28;20223;-69
2021/05/17 12:58:12;;;;;;;12.23;7.50;;;15.40;99.90;;;;;;4967462;28;20034;-70
2021/05/17 13:00:49;;;;;;;8.90;6.65;;;15.30;99.90;;;;;;4970362;28;20066;-69
2021/05/17 13:03:15;;;;;;;13.52;7.55;;;15.20;99.90;;;;;;4969764;28;20026;-70
2021/05/17 13:06:28;;;;;;;16.10;10.63;;;15.10;99.90;;;;;;4969968;28;20136;-70
2021/05/17 13:09:04;;;;;;;14.75;11.02;;;14.90;99.90;;;;;;4970385;28;20050;-69
2021/05/17 13:11:32;;;;;;;17.27;10.65;;;14.70;99.90;;;;;;4969621;28;20587;-69
2021/05/17 13:14:02;;;;;;;21.50;12.47;;;14.60;99.90;;;;;;4951647;28;20034;-70
2021/05/17 13:16:48;;;;;;;18.15;10.77;;;14.60;99.90;;;;;;4968997;28;20071;-70
2021/05/17 13:25:33;;;;;;;24.67;17.63;;;14.50;99.90;;;;;;4968323;28;20055;-70
2021/05/17 13:30:16;;;;;;;26.25;16.17;;;14.30;99.90;;;;;;4969676;28;20034;-70